Time;durP1;ratioP1;P1;durP2;ratioP2;P2;SDS_P1;SDS_P2;PMS_P1;PMS_P2;Temp;Humidity;BMP_temperature;BMP_pressure;BME280_temperature;BME280_humidity;BME280_pressure;Samples;Min_cycle;Max_cycle;Signal;HPM_P1;HPM_P2
2021/06/02 00:00:27;;;;;;;4.22;2.95;;;15.50;86.10;;;;;;5093578;28;20524;-60
2021/06/02 00:02:54;;;;;;;4.35;2.80;;;15.40;86.40;;;;;;5075705;28;20496;-60
2021/06/02 00:05:22;;;;;;;4.47;2.75;;;15.40;86.70;;;;;;5093583;28;20040;-60
2021/06/02 00:07:49;;;;;;;3.58;2.75;;;15.40;87.00;;;;;;5093567;28;20452;-60
2021/06/02 00:10:17;;;;;;;3.75;2.40;;;15.30;87.20;;;;;;5093654;28;20086;-60
2021/06/02 00:12:43;;;;;;;3.85;3.15;;;15.20;87.20;;;;;;5093589;28;20094;-60
2021/06/02 00:15:22;;;;;;;4.57;3.07;;;15.20;87.30;;;;;;5093590;28;20063;-60
2021/06/02 00:17:51;;;;;;;4.28;2.60;;;15.20;87.00;;;;;;5093196;28;20043;-60
2021/06/02 00:20:17;;;;;;;3.63;2.90;;;15.20;86.80;;;;;;5093403;28;20044;-60
2021/06/02 00:22:45;;;;;;;3.78;2.55;;;15.20;87.30;;;;;;5093177;28;20040;-60
2021/06/02 00:25:11;;;;;;;4.50;2.57;;;15.10;86.90;;;;;;5092713;28;20044;-60
2021/06/02 00:27:40;;;;;;;6.05;2.63;;;15.10;87.20;;;;;;5093147;28;20444;-60
2021/06/02 00:30:07;;;;;;;;;;;15.10;87.50;;;;;;5093635;28;20074;-60
2021/06/02 00:32:34;;;;;;;5.03;2.80;;;15.10;87.60;;;;;;5093092;28;20362;-60
2021/06/02 00:35:02;;;;;;;3.45;2.70;;;15.00;89.30;;;;;;5093085;28;20040;-60
2021/06/02 00:37:28;;;;;;;3.63;2.65;;;15.10;88.90;;;;;;5093044;28;20048;-60
2021/06/02 00:39:55;;;;;;;2.95;2.47;;;15.10;88.40;;;;;;5092746;28;20512;-60
2021/06/02 00:42:22;;;;;;;3.22;2.65;;;15.00;88.70;;;;;;5074719;28;20048;-60
2021/06/02 00:44:50;;;;;;;3.95;2.80;;;15.00;88.80;;;;;;5092977;28;20040;-60
2021/06/02 00:47:18;;;;;;;5.15;2.70;;;14.90;89.00;;;;;;5092972;28;20119;-60
2021/06/02 00:49:45;;;;;;;6.68;2.97;;;15.00;90.40;;;;;;5092640;28;20052;-60
2021/06/02 00:52:11;;;;;;;4.07;2.47;;;14.90;90.30;;;;;;5092661;28;20132;-60
2021/06/02 00:54:37;;;;;;;6.05;2.50;;;14.90;90.80;;;;;;5092526;28;20119;-60
2021/06/02 00:57:10;;;;;;;5.75;2.50;;;14.90;90.50;;;;;;5092693;28;20051;-60
2021/06/02 00:59:50;;;;;;;3.88;2.83;;;14.80;90.70;;;;;;5092869;28;20040;-60
2021/06/02 01:02:18;;;;;;;3.63;2.58;;;14.80;90.50;;;;;;5092535;28;20045;-60
2021/06/02 01:04:47;;;;;;;4.68;2.20;;;14.80;90.80;;;;;;5092587;28;20035;-60
2021/06/02 01:07:13;;;;;;;4.68;2.60;;;14.70;91.30;;;;;;5092409;28;20075;-60
2021/06/02 01:09:55;;;;;;;3.85;2.60;;;14.70;91.90;;;;;;5092511;28;20082;-60
2021/06/02 01:12:24;;;;;;;5.22;2.88;;;14.70;92.60;;;;;;5092373;28;20044;-60
2021/06/02 01:14:51;;;;;;;5.20;2.30;;;14.60;92.50;;;;;;5092447;28;20044;-60
2021/06/02 01:17:20;;;;;;;3.08;2.78;;;14.50;92.30;;;;;;5092486;28;20105;-60
2021/06/02 01:19:46;;;;;;;3.67;2.70;;;14.50;92.60;;;;;;5092136;28;20051;-60
2021/06/02 01:22:13;;;;;;;4.88;3.03;;;14.50;92.90;;;;;;5092381;28;20078;-60
2021/06/02 01:24:40;;;;;;;5.10;2.88;;;14.50;92.70;;;;;;5092307;28;20063;-60
2021/06/02 01:27:09;;;;;;;5.70;2.50;;;14.50;93.10;;;;;;5092241;28;20044;-60
2021/06/02 01:29:40;;;;;;;5.15;2.92;;;14.40;92.80;;;;;;5091995;28;20051;-60
2021/06/02 01:32:22;;;;;;;5.18;3.28;;;14.40;93.90;;;;;;5091973;28;20375;-60
2021/06/02 01:35:24;;;;;;;7.05;2.90;;;14.30;95.30;;;;;;5091975;28;20101;-60
2021/06/02 01:38:14;;;;;;;4.05;2.63;;;14.30;95.50;;;;;;5090908;28;20036;-60
2021/06/02 01:41:02;;;;;;;3.53;3.00;;;14.30;95.40;;;;;;5091988;28;20174;-60
2021/06/02 01:43:49;;;;;;;3.97;3.33;;;14.20;94.60;;;;;;5092233;28;20159;-60
2021/06/02 01:46:24;;;;;;;3.67;3.30;;;14.20;95.60;;;;;;5091892;28;20044;-60
2021/06/02 01:49:18;;;;;;;5.97;3.47;;;14.20;95.40;;;;;;5091626;28;20040;-60
2021/06/02 01:52:07;;;;;;;5.43;3.08;;;14.20;95.70;;;;;;5091734;28;20055;-60
2021/06/02 01:55:03;;;;;;;4.97;3.72;;;14.20;96.30;;;;;;5091829;28;20508;-60
2021/06/02 01:58:12;;;;;;;5.97;3.53;;;14.20;96.60;;;;;;5091872;28;20040;-60
2021/06/02 02:01:27;;;;;;;6.22;4.00;;;14.30;96.60;;;;;;5091818;28;20112;-60
2021/06/02 02:04:04;;;;;;;5.65;3.63;;;14.20;96.40;;;;;;4989627;28;20514;-60
2021/06/02 02:06:33;;;;;;;4.40;3.65;;;14.20;97.20;;;;;;4989945;28;20460;-60
2021/06/02 02:09:17;;;;;;;4.85;3.60;;;14.20;97.10;;;;;;4990082;28;20078;-60
2021/06/02 02:11:43;;;;;;;5.63;3.55;;;14.30;97.80;;;;;;4990225;28;20039;-60
2021/06/02 02:14:33;;;;;;;5.47;4.10;;;14.20;97.40;;;;;;4989904;28;20050;-60
2021/06/02 02:17:29;;;;;;;7.07;3.83;;;14.20;98.00;;;;;;4990142;28;20451;-60
2021/06/02 02:20:00;;;;;;;4.22;3.60;;;14.30;98.20;;;;;;4990022;28;20524;-60
2021/06/02 02:23:02;;;;;;;6.07;4.30;;;14.20;98.90;;;;;;4990003;28;20436;-60
2021/06/02 02:26:12;;;;;;;5.57;4.10;;;14.20;98.80;;;;;;4989857;28;20038;-60
2021/06/02 02:28:49;;;;;;;4.93;4.22;;;14.30;98.50;;;;;;4989934;28;20054;-60
2021/06/02 02:31:31;;;;;;;4.90;4.40;;;14.30;98.70;;;;;;4989931;28;20050;-60
2021/06/02 02:34:38;;;;;;;5.20;4.10;;;14.30;98.60;;;;;;4989674;28;20097;-61
2021/06/02 02:37:07;;;;;;;8.60;4.88;;;14.30;98.90;;;;;;4989895;28;20489;-60
2021/06/02 02:39:53;;;;;;;7.47;4.75;;;14.30;98.70;;;;;;5022977;28;20048;-61
2021/06/02 02:42:42;;;;;;;8.02;5.55;;;14.30;99.10;;;;;;5091445;28;20071;-60
2021/06/02 02:45:20;;;;;;;5.72;5.13;;;14.30;99.30;;;;;;5091165;28;20443;-60
2021/06/02 02:48:19;;;;;;;7.13;5.78;;;14.30;99.40;;;;;;5092014;28;20056;-60
2021/06/02 02:51:14;;;;;;;8.13;5.53;;;14.30;99.90;;;;;;4993000;28;20227;-60
2021/06/02 02:54:03;;;;;;;6.65;5.55;;;14.30;99.90;;;;;;4935217;29;20051;-60
2021/06/02 02:56:45;;;;;;;9.68;6.15;;;14.20;99.90;;;;;;4935221;29;20044;-60
2021/06/02 02:59:30;;;;;;;7.00;5.93;;;14.10;99.90;;;;;;4935301;29;20144;-60
2021/06/02 03:02:03;;;;;;;6.35;5.15;;;14.20;99.90;;;;;;4935332;29;20156;-60
2021/06/02 03:04:41;;;;;;;8.88;6.25;;;14.20;99.90;;;;;;4935113;29;20047;-60
2021/06/02 03:07:10;;;;;;;8.60;6.95;;;14.10;99.90;;;;;;4935296;29;20052;-60
2021/06/02 03:09:52;;;;;;;8.43;6.60;;;14.20;99.90;;;;;;4935071;29;20131;-60
2021/06/02 03:12:44;;;;;;;6.95;6.15;;;14.10;99.90;;;;;;4935077;29;20054;-60
2021/06/02 03:15:27;;;;;;;10.93;6.72;;;14.20;99.90;;;;;;4935174;29;20047;-60
2021/06/02 03:18:08;;;;;;;8.57;6.13;;;14.10;99.90;;;;;;4935084;29;20499;-60
2021/06/02 03:20:57;;;;;;;10.27;7.20;;;14.20;99.90;;;;;;4934812;29;20052;-60
2021/06/02 03:24:00;;;;;;;8.52;7.15;;;14.20;99.90;;;;;;4927359;29;20174;-60
2021/06/02 03:26:32;;;;;;;8.05;6.97;;;14.20;99.90;;;;;;4937136;28;20087;-59
2021/06/02 03:29:18;;;;;;;9.63;7.20;;;14.10;99.90;;;;;;5012026;28;20041;-60
2021/06/02 03:31:59;;;;;;;7.05;6.35;;;14.10;99.90;;;;;;5085014;28;20075;-60
2021/06/02 03:34:42;;;;;;;12.13;7.38;;;14.20;99.90;;;;;;5094053;28;20036;-60
2021/06/02 03:37:32;;;;;;;10.50;7.32;;;14.20;99.90;;;;;;5094438;28;20052;-60
2021/06/02 03:40:06;;;;;;;9.25;7.40;;;14.20;99.90;;;;;;5094314;28;20071;-60
2021/06/02 03:42:51;;;;;;;9.15;7.32;;;14.20;99.90;;;;;;5093827;28;20036;-60
2021/06/02 03:45:38;;;;;;;11.70;8.25;;;14.30;99.90;;;;;;5093969;28;20115;-60
2021/06/02 03:48:06;;;;;;;10.57;8.05;;;14.30;99.90;;;;;;5094199;28;20043;-60
2021/06/02 03:51:01;;;;;;;11.48;8.45;;;14.30;99.90;;;;;;5093528;28;20055;-60
2021/06/02 03:53:33;;;;;;;13.13;8.95;;;14.30;99.90;;;;;;5091581;28;20055;-60
2021/06/02 03:56:34;;;;;;;14.27;8.23;;;14.40;99.90;;;;;;5093517;28;20501;-60
2021/06/02 03:59:12;;;;;;;13.55;8.43;;;14.40;99.90;;;;;;5093414;28;20036;-60
2021/06/02 04:01:58;;;;;;;11.52;8.70;;;14.40;99.90;;;;;;5093562;28;20044;-60
2021/06/02 04:04:24;;;;;;;9.88;8.23;;;14.50;99.90;;;;;;5093413;28;20047;-60
2021/06/02 04:07:12;;;;;;;11.25;8.73;;;14.40;99.90;;;;;;5093830;28;20094;-61
2021/06/02 04:09:59;;;;;;;13.63;9.10;;;14.50;99.90;;;;;;5093658;28;20097;-60
2021/06/02 04:12:50;;;;;;;10.82;8.30;;;14.60;99.90;;;;;;5093348;28;20040;-60
2021/06/02 04:15:17;;;;;;;12.15;8.18;;;14.60;99.90;;;;;;4991876;28;20070;-59
2021/06/02 04:17:49;;;;;;;10.57;8.07;;;14.70;99.90;;;;;;4991769;28;20050;-60
2021/06/02 04:20:16;;;;;;;10.93;8.40;;;14.80;99.90;;;;;;4991831;28;20042;-60
2021/06/02 04:22:46;;;;;;;10.50;8.38;;;14.80;99.90;;;;;;4991657;28;20061;-60
2021/06/02 04:25:15;;;;;;;12.40;8.30;;;14.80;99.90;;;;;;4991667;28;20042;-59
2021/06/02 04:27:43;;;;;;;;;;;14.90;99.90;;;;;;4991958;28;20046;-59
2021/06/02 04:30:12;;;;;;;11.32;8.30;;;14.90;99.90;;;;;;4975559;28;20056;-60
2021/06/02 04:32:40;;;;;;;9.63;8.40;;;14.90;99.90;;;;;;4991353;28;20056;-60
2021/06/02 04:35:11;;;;;;;12.85;8.23;;;15.00;99.90;;;;;;4991408;28;20085;-59
2021/06/02 04:37:36;;;;;;;;;;;15.00;99.90;;;;;;4991838;28;20125;-60
2021/06/02 04:40:05;;;;;;;9.55;7.95;;;15.10;99.90;;;;;;4991231;28;20105;-60
2021/06/02 04:42:37;;;;;;;11.02;8.10;;;15.10;99.90;;;;;;4991255;28;20121;-60
2021/06/02 04:45:16;;;;;;;10.35;7.70;;;15.10;99.90;;;;;;4991318;28;20050;-60
2021/06/02 04:47:45;;;;;;;10.73;7.90;;;15.10;99.90;;;;;;4991282;28;20049;-60
2021/06/02 04:50:35;;;;;;;9.05;7.53;;;15.20;99.90;;;;;;4990992;28;20061;-60
2021/06/02 04:53:27;;;;;;;11.15;8.13;;;15.20;99.90;;;;;;5074323;28;20489;-59
2021/06/02 04:56:29;;;;;;;12.90;9.23;;;15.20;99.90;;;;;;5092958;28;20043;-60
2021/06/02 04:59:23;;;;;;;9.52;6.95;;;15.20;99.90;;;;;;5092589;28;20036;-59
2021/06/02 05:02:25;;;;;;;8.52;7.10;;;15.20;99.90;;;;;;5092764;28;20044;-60
2021/06/02 05:05:02;;;;;;;7.78;6.90;;;15.30;99.90;;;;;;5092404;28;20101;-59
2021/06/02 05:08:05;;;;;;;11.90;8.10;;;15.30;99.90;;;;;;5092430;28;20127;-59
2021/06/02 05:10:50;;;;;;;8.70;6.13;;;15.50;99.90;;;;;;5092299;28;20051;-59
2021/06/02 05:13:39;;;;;;;11.13;6.95;;;15.50;99.90;;;;;;5092381;28;20131;-59
2021/06/02 05:16:41;;;;;;;12.50;7.00;;;15.50;99.90;;;;;;5092458;28;20047;-59
2021/06/02 05:22:38;;;;;;;9.30;7.00;;;15.80;99.90;;;;;;5087350;28;20051;-60
2021/06/02 05:25:27;;;;;;;8.18;6.63;;;15.90;99.90;;;;;;5092314;28;20044;-59
2021/06/02 05:28:14;;;;;;;8.77;6.70;;;16.00;99.90;;;;;;5092238;28;20032;-60
2021/06/02 05:31:12;;;;;;;11.23;7.47;;;16.00;99.90;;;;;;5092218;28;20147;-59
2021/06/02 05:34:02;;;;;;;12.15;7.30;;;16.00;99.90;;;;;;5091695;28;20047;-60
2021/06/02 05:36:46;;;;;;;9.20;7.13;;;15.80;99.90;;;;;;5092212;28;20079;-60
2021/06/02 05:39:49;;;;;;;16.40;7.25;;;15.80;99.90;;;;;;5091998;28;20393;-59
2021/06/02 05:42:25;;;;;;;11.52;7.82;;;15.90;99.90;;;;;;5091892;28;20048;-59
2021/06/02 05:45:03;;;;;;;12.27;7.45;;;15.90;99.90;;;;;;5092031;28;20100;-60
2021/06/02 05:47:49;;;;;;;10.77;7.68;;;15.80;99.90;;;;;;5074192;28;20055;-59
2021/06/02 05:50:49;;;;;;;10.27;7.40;;;15.90;99.90;;;;;;5091701;28;20128;-61
2021/06/02 05:53:51;;;;;;;9.55;7.50;;;16.10;99.90;;;;;;5091880;28;20054;-60
2021/06/02 05:56:54;;;;;;;11.02;7.60;;;16.40;99.90;;;;;;5091741;28;20038;-60
2021/06/02 05:59:44;;;;;;;11.65;8.25;;;16.50;99.90;;;;;;5091883;28;20123;-60
2021/06/02 06:02:21;;;;;;;;;;;16.50;99.90;;;;;;5092243;28;20096;-59
2021/06/02 06:05:17;;;;;;;13.35;8.40;;;16.50;99.90;;;;;;5091787;28;19938;-60
2021/06/02 06:07:52;;;;;;;16.05;7.95;;;16.50;99.90;;;;;;5091708;28;20040;-59
2021/06/02 06:10:34;;;;;;;14.68;7.65;;;16.50;99.90;;;;;;5092073;28;20048;-58
2021/06/02 06:13:21;;;;;;;11.13;8.02;;;16.40;99.90;;;;;;5091970;28;20048;-59
2021/06/02 06:16:13;;;;;;;12.02;8.18;;;16.50;99.90;;;;;;5091623;28;20040;-58
2021/06/02 06:18:57;;;;;;;12.57;8.20;;;16.50;99.90;;;;;;5091693;28;20040;-59
2021/06/02 06:22:01;;;;;;;10.73;8.30;;;16.50;99.90;;;;;;5087198;28;20040;-60
2021/06/02 06:24:31;;;;;;;11.02;7.97;;;16.70;99.90;;;;;;5106004;28;20047;-60
2021/06/02 06:27:25;;;;;;;11.32;8.18;;;16.90;99.90;;;;;;5105566;28;20064;-60
2021/06/02 06:30:06;;;;;;;10.98;7.60;;;17.10;99.90;;;;;;5104326;28;20123;-59
2021/06/02 06:32:34;;;;;;;9.80;6.82;;;17.50;99.90;;;;;;5099573;28;20078;-60
2021/06/02 06:35:01;;;;;;;;;;;17.60;99.90;;;;;;5095955;28;20478;-60
2021/06/02 06:37:32;;;;;;;13.75;6.40;;;17.60;99.90;;;;;;5094760;28;19939;-60
2021/06/02 06:40:07;;;;;;;8.48;7.32;;;17.90;99.90;;;;;;5094091;28;20089;-59
2021/06/02 06:42:39;;;;;;;9.23;6.70;;;18.40;99.90;;;;;;5095061;28;20036;-60
2021/06/02 06:45:15;;;;;;;10.35;6.13;;;18.50;99.30;;;;;;5095731;28;20370;-60
2021/06/02 06:47:41;;;;;;;9.13;6.85;;;18.80;99.50;;;;;;5095154;28;20469;-60
2021/06/02 06:50:12;;;;;;;13.38;6.60;;;19.10;99.50;;;;;;5095085;28;20406;-60
2021/06/02 06:52:41;;;;;;;8.35;6.60;;;19.40;99.90;;;;;;5094862;28;20044;-60
2021/06/02 06:55:08;;;;;;;12.07;6.95;;;19.70;99.10;;;;;;5095011;28;20101;-60
2021/06/02 06:57:35;;;;;;;13.07;6.60;;;19.80;99.40;;;;;;5094995;28;20120;-60
2021/06/02 07:00:01;;;;;;;9.55;6.57;;;20.10;99.20;;;;;;5095105;28;20074;-60
2021/06/02 07:02:28;;;;;;;7.93;5.75;;;20.20;98.20;;;;;;5094884;28;20043;-60
2021/06/02 07:04:56;;;;;;;9.10;6.43;;;20.40;98.40;;;;;;5094798;28;20117;-59
2021/06/02 07:07:26;;;;;;;10.80;6.20;;;20.50;97.90;;;;;;5095227;28;20089;-60
2021/06/02 07:09:52;;;;;;;10.95;6.53;;;20.80;96.80;;;;;;5094806;28;20060;-60
2021/06/02 07:12:24;;;;;;;9.20;5.50;;;21.10;97.10;;;;;;5094901;28;20124;-60
2021/06/02 07:14:51;;;;;;;10.32;6.10;;;21.10;96.90;;;;;;5095055;28;20044;-59
2021/06/02 07:17:21;;;;;;;11.77;6.15;;;21.20;96.80;;;;;;5094525;28;20881;-59
2021/06/02 07:19:49;;;;;;;12.25;5.97;;;21.30;96.10;;;;;;5094514;28;20093;-60
2021/06/02 07:22:20;;;;;;;13.13;6.22;;;21.60;95.10;;;;;;5094531;28;20397;-60
2021/06/02 07:24:46;;;;;;;8.48;5.75;;;21.70;95.70;;;;;;5094463;28;20111;-60
2021/06/02 07:27:16;;;;;;;8.02;5.28;;;21.60;94.80;;;;;;5094168;28;20117;-59
2021/06/02 07:29:44;;;;;;;9.48;6.05;;;21.60;94.10;;;;;;5092297;28;20044;-59
2021/06/02 07:32:09;;;;;;;6.72;5.15;;;21.70;94.70;;;;;;5094361;28;20489;-59
2021/06/02 07:34:35;;;;;;;6.00;4.45;;;21.60;93.90;;;;;;5096694;28;20048;-60
2021/06/02 07:37:14;;;;;;;9.25;4.75;;;21.50;92.90;;;;;;5091346;28;20940;-60
2021/06/02 07:39:40;;;;;;;10.40;4.43;;;21.20;92.30;;;;;;5092995;28;20027;-61
2021/06/02 07:42:06;;;;;;;5.72;4.47;;;21.40;93.10;;;;;;5092119;28;20047;-61
2021/06/02 07:44:32;;;;;;;7.85;5.35;;;21.30;93.60;;;;;;5094216;28;20066;-59
2021/06/02 07:46:57;;;;;;;7.57;5.10;;;21.70;93.50;;;;;;5094036;28;20481;-58
2021/06/02 07:49:23;;;;;;;6.90;4.80;;;22.40;93.00;;;;;;5093117;28;20500;-58
2021/06/02 07:51:51;;;;;;;10.50;5.03;;;23.10;92.90;;;;;;5094013;28;20050;-58
2021/06/02 07:54:19;;;;;;;9.27;5.95;;;24.00;92.00;;;;;;5094035;28;20047;-58
2021/06/02 07:56:45;;;;;;;8.43;4.68;;;24.30;90.90;;;;;;5093962;28;20051;-58
2021/06/02 07:59:11;;;;;;;7.65;4.70;;;25.40;90.70;;;;;;5093766;28;20058;-59
2021/06/02 08:01:36;;;;;;;8.45;4.13;;;25.70;87.80;;;;;;5093943;28;20083;-59
2021/06/02 08:04:02;;;;;;;7.03;3.97;;;25.60;86.00;;;;;;5093698;28;20071;-59
2021/06/02 08:06:28;;;;;;;7.20;3.83;;;25.50;81.30;;;;;;5086561;28;20062;-60
2021/06/02 08:08:54;;;;;;;7.15;3.20;;;25.10;81.90;;;;;;5093384;28;20044;-59
2021/06/02 08:11:20;;;;;;;7.07;3.60;;;26.10;82.00;;;;;;5093224;28;20032;-60
2021/06/02 08:13:46;;;;;;;6.88;3.38;;;26.50;79.50;;;;;;5092247;28;20406;-58
2021/06/02 08:16:11;;;;;;;4.20;3.25;;;26.40;80.00;;;;;;5092942;28;20051;-59
2021/06/02 08:18:37;;;;;;;5.43;3.55;;;26.60;79.20;;;;;;5100233;28;20081;-59
2021/06/02 08:21:03;;;;;;;5.15;3.50;;;26.10;79.10;;;;;;5102517;28;20085;-60
2021/06/02 08:23:29;;;;;;;4.30;3.38;;;25.50;78.70;;;;;;5089453;28;20122;-60
2021/06/02 08:25:55;;;;;;;4.88;4.03;;;24.80;79.70;;;;;;5108895;28;20126;-60
2021/06/02 08:28:22;;;;;;;4.75;3.97;;;24.70;80.60;;;;;;5107912;28;20036;-59
2021/06/02 08:30:49;;;;;;;6.68;3.60;;;25.10;81.30;;;;;;5092770;28;20040;-59
2021/06/02 08:33:14;;;;;;;6.70;3.95;;;25.50;80.20;;;;;;5092626;28;20228;-60
2021/06/02 08:35:40;;;;;;;5.93;3.60;;;25.60;78.80;;;;;;5096043;28;20677;-59
2021/06/02 08:38:06;;;;;;;5.90;3.42;;;25.40;79.10;;;;;;5095480;28;20481;-61
2021/06/02 08:40:33;;;;;;;5.68;3.53;;;24.70;79.40;;;;;;5087664;28;20121;-59
2021/06/02 08:42:59;;;;;;;6.28;3.60;;;24.60;80.70;;;;;;5102483;28;20130;-59
2021/06/02 08:45:25;;;;;;;5.90;3.60;;;25.30;80.40;;;;;;5098283;28;20127;-59
2021/06/02 08:47:50;;;;;;;6.20;3.45;;;25.70;80.30;;;;;;5092108;28;20424;-59
2021/06/02 08:50:21;;;;;;;4.57;3.13;;;25.90;80.00;;;;;;5077753;28;20047;-59
2021/06/02 08:52:48;;;;;;;4.75;3.30;;;26.40;80.10;;;;;;5113017;28;20496;-59
2021/06/02 08:55:17;;;;;;;5.57;3.80;;;27.20;78.10;;;;;;5113141;28;20062;-58
2021/06/02 08:57:45;;;;;;;5.80;4.05;;;26.40;78.10;;;;;;5113229;28;20049;-60
2021/06/02 09:00:12;;;;;;;;;;;26.50;77.70;;;;;;5113683;28;20054;-59
2021/06/02 09:02:39;;;;;;;7.32;4.10;;;26.90;79.20;;;;;;5113294;28;19930;-59
2021/06/02 09:05:07;;;;;;;6.82;3.90;;;27.50;78.70;;;;;;5095006;28;20043;-60
2021/06/02 09:07:37;;;;;;;3.45;2.55;;;27.00;78.10;;;;;;5112968;28;20488;-59
2021/06/02 09:10:05;;;;;;;2.35;1.80;;;26.80;74.30;;;;;;5113327;28;20027;-59
2021/06/02 09:12:36;;;;;;;3.67;2.17;;;27.50;73.70;;;;;;5112749;28;20051;-59
2021/06/02 09:15:07;;;;;;;8.20;3.03;;;27.90;72.90;;;;;;5112744;28;20117;-60
2021/06/02 09:17:56;;;;;;;4.47;2.67;;;27.50;71.70;;;;;;5112720;28;20043;-59
2021/06/02 09:20:45;;;;;;;6.15;2.65;;;26.90;70.90;;;;;;5112666;28;20047;-60
2021/06/02 09:23:35;;;;;;;5.63;2.30;;;26.70;69.40;;;;;;5112788;28;20073;-60
2021/06/02 09:26:10;;;;;;;4.25;2.60;;;26.60;69.80;;;;;;5112503;28;20132;-59
2021/06/02 09:29:03;;;;;;;3.95;2.28;;;27.20;71.90;;;;;;5112536;28;20047;-59
2021/06/02 09:31:36;;;;;;;7.10;2.10;;;28.70;72.80;;;;;;5112630;28;20062;-59
2021/06/02 09:34:17;;;;;;;7.28;2.67;;;29.00;67.50;;;;;;5112370;28;20044;-60
2021/06/02 09:36:47;;;;;;;3.15;2.28;;;29.90;66.00;;;;;;5112337;28;20035;-60
2021/06/02 09:39:21;;;;;;;3.80;2.33;;;30.00;67.20;;;;;;5112402;28;20039;-60
2021/06/02 09:41:49;;;;;;;4.97;2.40;;;30.30;67.30;;;;;;5112310;28;20036;-60
2021/06/02 09:44:19;;;;;;;;;;;30.90;66.80;;;;;;5112963;28;20180;-60
2021/06/02 09:47:11;;;;;;;3.17;2.53;;;30.90;64.60;;;;;;5112559;28;19919;-61
2021/06/02 09:49:47;;;;;;;4.95;2.70;;;31.20;63.80;;;;;;5112291;28;20383;-60
2021/06/02 09:52:14;;;;;;;7.07;2.63;;;31.20;64.10;;;;;;5112108;28;20122;-60
2021/06/02 09:54:40;;;;;;;3.90;2.33;;;30.90;62.60;;;;;;5112136;28;20044;-61
2021/06/02 09:57:16;;;;;;;6.32;2.50;;;31.00;63.90;;;;;;5111726;28;20081;-59
2021/06/02 09:59:56;;;;;;;10.38;2.65;;;31.80;63.00;;;;;;5112037;28;20048;-61
2021/06/02 10:02:22;;;;;;;4.63;2.90;;;31.70;62.80;;;;;;5112005;28;20051;-61
2021/06/02 10:05:05;;;;;;;6.70;2.97;;;31.30;62.20;;;;;;5111924;28;20523;-61
2021/06/02 10:07:32;;;;;;;3.13;2.65;;;31.40;61.40;;;;;;5112208;28;20053;-61
2021/06/02 10:10:19;;;;;;;8.95;3.28;;;32.10;61.40;;;;;;5112048;28;20094;-61
2021/06/02 10:13:04;;;;;;;4.07;2.83;;;32.40;62.80;;;;;;5111937;28;20117;-61
2021/06/02 10:15:33;;;;;;;3.67;2.50;;;32.80;61.90;;;;;;5112058;28;20381;-60
2021/06/02 10:18:00;;;;;;;7.45;2.55;;;32.90;61.30;;;;;;5111882;28;20063;-61
2021/06/02 10:20:27;;;;;;;7.20;3.13;;;33.20;61.20;;;;;;5111938;28;20048;-61
2021/06/02 10:22:55;;;;;;;4.70;2.90;;;33.10;60.40;;;;;;5111906;28;20044;-61
2021/06/02 10:25:23;;;;;;;3.70;3.30;;;33.60;59.30;;;;;;5111750;28;20549;-62
2021/06/02 10:27:50;;;;;;;;;;;32.30;59.50;;;;;;5112246;28;20046;-61
2021/06/02 10:30:17;;;;;;;5.57;2.85;;;33.10;61.60;;;;;;5111859;28;19919;-61
2021/06/02 10:32:42;;;;;;;4.50;2.90;;;32.90;60.70;;;;;;5111714;28;20039;-61
2021/06/02 10:35:08;;;;;;;4.80;3.03;;;33.50;59.70;;;;;;5106884;28;20085;-61
2021/06/02 10:37:40;;;;;;;22.25;3.78;;;33.70;58.60;;;;;;5111776;28;20059;-61
2021/06/02 10:40:12;;;;;;;4.15;2.88;;;33.10;60.50;;;;;;5111951;28;20077;-61
2021/06/02 10:42:47;;;;;;;3.78;2.78;;;33.20;59.50;;;;;;5111929;28;20450;-61
2021/06/02 10:45:18;;;;;;;6.93;3.10;;;33.80;58.20;;;;;;5112114;28;20044;-62
2021/06/02 10:47:51;;;;;;;3.80;2.50;;;34.00;58.40;;;;;;5111817;28;20131;-61
2021/06/02 10:50:31;;;;;;;5.57;2.35;;;34.40;58.00;;;;;;5094600;28;20048;-62
2021/06/02 10:52:59;;;;;;;6.85;2.92;;;34.60;57.50;;;;;;5107750;28;20130;-62
2021/06/02 10:55:31;;;;;;;5.28;2.85;;;33.60;56.70;;;;;;5111378;28;20043;-61
2021/06/02 10:58:15;;;;;;;5.20;2.67;;;33.80;57.20;;;;;;5110881;28;20043;-61
2021/06/02 11:00:41;;;;;;;7.75;3.10;;;33.60;58.00;;;;;;5111174;28;20092;-62
2021/06/02 11:03:25;;;;;;;4.05;3.00;;;33.50;56.10;;;;;;5111638;28;20509;-61
2021/06/02 11:06:12;;;;;;;5.13;2.75;;;33.70;59.10;;;;;;5096883;28;20500;-62
2021/06/02 11:08:53;;;;;;;4.10;2.90;;;34.10;57.80;;;;;;5089700;28;20040;-61
2021/06/02 11:11:34;;;;;;;4.68;2.53;;;32.90;57.50;;;;;;5093411;28;20401;-61
2021/06/02 11:14:15;;;;;;;5.32;2.53;;;32.30;58.30;;;;;;5075254;28;20501;-61
2021/06/02 11:16:42;;;;;;;4.90;3.22;;;32.80;58.20;;;;;;5093727;28;20048;-62
2021/06/02 11:19:25;;;;;;;5.40;3.17;;;31.70;57.80;;;;;;5074051;28;20138;-61
2021/06/02 11:21:56;;;;;;;5.70;3.42;;;31.60;58.70;;;;;;5092597;28;20040;-61
2021/06/02 11:24:31;;;;;;;7.93;3.67;;;30.80;59.70;;;;;;5094441;28;20035;-62
2021/06/02 11:27:17;;;;;;;5.10;3.65;;;30.80;59.90;;;;;;5092037;28;20134;-61
2021/06/02 11:29:51;;;;;;;10.15;3.50;;;29.70;59.10;;;;;;5021325;28;20069;-61
2021/06/02 11:32:17;;;;;;;9.65;3.13;;;30.10;61.30;;;;;;5005604;28;20423;-61
2021/06/02 11:34:44;;;;;;;3.85;3.42;;;30.00;61.70;;;;;;5006909;28;20039;-61
2021/06/02 11:37:13;;;;;;;9.57;3.17;;;30.10;61.60;;;;;;4999986;28;20052;-61
2021/06/02 11:39:41;;;;;;;4.32;2.80;;;29.80;61.40;;;;;;5000516;28;20052;-61
2021/06/02 11:42:25;;;;;;;9.68;4.40;;;30.10;62.20;;;;;;5002373;28;20048;-61
2021/06/02 11:44:59;;;;;;;5.82;3.60;;;30.50;60.60;;;;;;5003646;28;20421;-61
2021/06/02 11:47:26;;;;;;;4.18;3.33;;;30.60;60.50;;;;;;5016342;28;20384;-62
2021/06/02 11:50:00;;;;;;;4.15;2.95;;;30.70;59.60;;;;;;5012309;28;20062;-62
2021/06/02 11:52:27;;;;;;;10.45;4.85;;;30.70;61.90;;;;;;5011982;28;20049;-61
2021/06/02 11:55:00;;;;;;;7.72;3.70;;;31.10;62.20;;;;;;5014641;28;20144;-62
2021/06/02 11:57:29;;;;;;;5.38;3.42;;;31.20;61.20;;;;;;5028846;28;20442;-61
2021/06/02 11:59:56;;;;;;;5.53;2.83;;;30.70;60.10;;;;;;5007078;28;20042;-61
2021/06/02 12:02:23;;;;;;;7.15;3.00;;;31.20;60.80;;;;;;5011486;28;20064;-62
2021/06/02 12:04:48;;;;;;;4.85;3.35;;;31.30;60.30;;;;;;5009743;28;20536;-62
2021/06/02 12:07:28;;;;;;;8.30;3.28;;;30.80;60.10;;;;;;5053233;28;20135;-62
2021/06/02 12:09:55;;;;;;;8.30;3.47;;;31.00;58.00;;;;;;5073771;28;20139;-61
2021/06/02 12:12:25;;;;;;;5.68;3.40;;;31.00;59.60;;;;;;5073601;28;20045;-61
2021/06/02 12:14:58;;;;;;;4.40;3.00;;;31.10;60.30;;;;;;5073234;28;20045;-61
2021/06/02 12:17:31;;;;;;;4.80;3.00;;;31.50;58.70;;;;;;5073011;28;20057;-62
2021/06/02 12:19:59;;;;;;;5.32;2.78;;;31.50;60.10;;;;;;5072783;28;20486;-62
2021/06/02 12:22:25;;;;;;;6.82;2.92;;;31.50;60.00;;;;;;5072395;28;20069;-62
2021/06/02 12:25:08;;;;;;;5.18;3.17;;;31.40;60.20;;;;;;5072983;28;20047;-62
2021/06/02 12:27:55;;;;;;;5.20;3.45;;;30.50;58.10;;;;;;5073116;28;20068;-62
2021/06/02 12:30:27;;;;;;;5.03;3.00;;;30.30;59.10;;;;;;5072958;28;20451;-61
2021/06/02 12:32:54;;;;;;;3.75;3.03;;;30.40;59.30;;;;;;5072744;28;20486;-61
2021/06/02 12:35:32;;;;;;;6.10;3.58;;;30.30;59.80;;;;;;5072997;28;20051;-62
2021/06/02 12:38:05;;;;;;;8.05;3.35;;;30.60;58.10;;;;;;5072903;28;20047;-62
2021/06/02 12:40:32;;;;;;;8.00;3.10;;;30.60;60.30;;;;;;5072695;28;20505;-62
2021/06/02 12:42:58;;;;;;;4.87;3.10;;;30.60;60.50;;;;;;5072646;28;20112;-61
2021/06/02 12:45:25;;;;;;;5.93;2.85;;;30.30;58.80;;;;;;5072670;28;20745;-62
2021/06/02 12:47:52;;;;;;;3.28;2.70;;;30.40;58.80;;;;;;5072479;28;20043;-62
2021/06/02 12:50:53;;;;;;;3.80;2.47;;;30.10;58.50;;;;;;5081191;28;20048;-62
2021/06/02 12:53:18;;;;;;;4.22;2.70;;;30.20;60.20;;;;;;4991083;28;20057;-62
2021/06/02 12:55:46;;;;;;;5.25;3.33;;;29.90;59.30;;;;;;4991357;28;20050;-62
2021/06/02 12:58:15;;;;;;;5.75;3.40;;;29.50;58.50;;;;;;4991202;28;20042;-62
2021/06/02 13:00:42;;;;;;;9.00;3.67;;;29.80;59.60;;;;;;4991097;28;20397;-61
2021/06/02 13:03:10;;;;;;;7.60;3.47;;;29.80;59.90;;;;;;4990923;28;20057;-61
2021/06/02 13:05:37;;;;;;;5.40;3.65;;;29.90;59.00;;;;;;4990928;28;20471;-62
2021/06/02 13:08:09;;;;;;;5.57;2.65;;;30.10;58.80;;;;;;4990944;28;20061;-62
2021/06/02 13:10:37;;;;;;;4.78;3.33;;;29.90;60.30;;;;;;4996566;28;20048;-61
2021/06/02 13:13:06;;;;;;;6.75;3.28;;;29.90;60.50;;;;;;5000111;28;20053;-62
2021/06/02 13:15:39;;;;;;;6.13;3.70;;;30.10;60.50;;;;;;4997616;28;20120;-62
2021/06/02 13:18:06;;;;;;;4.57;3.20;;;29.90;60.10;;;;;;5001354;28;20049;-61
2021/06/02 13:20:35;;;;;;;8.43;3.00;;;30.00;62.80;;;;;;4999326;28;20045;-61
2021/06/02 13:23:18;;;;;;;5.18;3.30;;;30.10;61.50;;;;;;4999574;28;20052;-61
2021/06/02 13:25:57;;;;;;;4.20;2.55;;;30.40;61.50;;;;;;5000580;28;20054;-62
2021/06/02 13:28:24;;;;;;;10.57;2.90;;;30.10;61.50;;;;;;5098694;28;20060;-61
2021/06/02 13:30:56;;;;;;;5.30;3.65;;;29.70;61.60;;;;;;5100665;28;20028;-62
2021/06/02 13:33:22;;;;;;;7.75;3.15;;;29.60;61.40;;;;;;5103468;28;20032;-62